createdAt,value
2023-03-17T00:00:01.684Z,100136.77
2023-03-17T00:01:07.085Z,100135.05
2023-03-17T00:02:09.962Z,100139.48
2023-03-17T00:03:32.430Z,100142.98
2023-03-17T00:04:37.179Z,100140.34
2023-03-17T00:05:39.865Z,100149.13
2023-03-17T00:06:53.318Z,100143.95
2023-03-17T00:09:23.360Z,100140.53
2023-03-17T00:10:28.809Z,100147.59
2023-03-17T00:11:33.651Z,100137.88
2023-03-17T00:12:36.696Z,100156.38
2023-03-17T00:13:40.208Z,100160.73
2023-03-17T00:14:44.663Z,100148.38
2023-03-17T00:17:13.935Z,100149.33
2023-03-17T00:18:23.383Z,100144.20
2023-03-17T00:19:33.812Z,100154.70
2023-03-17T00:20:36.639Z,100146.66
2023-03-17T00:21:38.734Z,100146.59
2023-03-17T00:22:41.025Z,100168.48
2023-03-17T00:23:45.942Z,100156.95
2023-03-17T00:24:48.176Z,100153.48
2023-03-17T00:25:50.566Z,100159.59
2023-03-17T00:26:53.035Z,100158.77
2023-03-17T00:27:56.533Z,100158.66
2023-03-17T00:29:00.555Z,100156.95
2023-03-17T00:30:02.891Z,100156.95
2023-03-17T00:31:20.590Z,100149.88
2023-03-17T00:32:23.365Z,100153.27
2023-03-17T00:33:29.308Z,100167.34
2023-03-17T00:34:32.150Z,100163.84
2023-03-17T00:35:34.340Z,100159.52
2023-03-17T00:36:36.375Z,100156.88
2023-03-17T00:37:38.528Z,100162.05
2023-03-17T00:38:42.099Z,100169.13
2023-03-17T00:39:44.459Z,100158.66
2023-03-17T00:40:47.593Z,100157.80
2023-03-17T00:41:49.633Z,100167.45
2023-03-17T00:42:52.651Z,100167.45
2023-03-17T00:43:54.857Z,100170.09
2023-03-17T00:44:56.953Z,100158.77
2023-03-17T00:45:59.442Z,100160.45
2023-03-17T00:47:01.710Z,100173.59
2023-03-17T00:48:08.065Z,100169.23
2023-03-17T00:49:20.026Z,100161.30
2023-03-17T00:50:24.538Z,100167.52
2023-03-17T00:51:26.673Z,100170.17
2023-03-17T00:52:30.490Z,100167.45
2023-03-17T00:53:33.082Z,100168.38
2023-03-17T00:54:35.169Z,100170.95
2023-03-17T00:55:37.445Z,100165.66
2023-03-17T00:56:40.206Z,100159.41
2023-03-17T00:57:42.414Z,100165.48
2023-03-17T00:58:45.812Z,100180.38
2023-03-17T00:59:48.485Z,100176.06
2023-03-17T01:00:51.611Z,100155.84
2023-03-17T01:01:54.781Z,100164.80
2023-03-17T01:02:57.424Z,100164.88
2023-03-17T01:04:00.181Z,100161.41
2023-03-17T01:05:06.701Z,100164.88
2023-03-17T01:06:10.479Z,100152.63
2023-03-17T01:07:12.797Z,100168.48
2023-03-17T01:08:15.767Z,100163.09
2023-03-17T01:09:18.697Z,100158.66
2023-03-17T01:11:36.559Z,100168.52
2023-03-17T01:12:38.728Z,100171.12
2023-03-17T01:13:40.566Z,100179.92
2023-03-17T01:14:42.685Z,100160.55
2023-03-17T01:15:47.084Z,100166.70
2023-03-17T01:16:49.972Z,100164.88
2023-03-17T01:17:52.063Z,100174.63
2023-03-17T01:18:54.859Z,100169.42
2023-03-17T01:19:58.143Z,100184.42
2023-03-17T01:21:00.960Z,100172.17
2023-03-17T01:22:03.260Z,100177.45
2023-03-17T01:23:06.032Z,100174.81
2023-03-17T01:24:08.316Z,100167.81
2023-03-17T01:25:11.697Z,100177.53
2023-03-17T01:26:13.974Z,100174.03
2023-03-17T01:27:18.267Z,100170.56
2023-03-17T01:28:22.707Z,100172.34
2023-03-17T01:29:25.754Z,100176.67
2023-03-17T01:30:37.328Z,100171.38
2023-03-17T01:31:39.523Z,100171.31
2023-03-17T01:32:42.044Z,100176.49
2023-03-17T01:33:44.900Z,100177.35
2023-03-17T01:34:47.109Z,100174.70
2023-03-17T01:35:50.404Z,100185.28
2023-03-17T01:36:52.993Z,100179.14
2023-03-17T01:37:55.969Z,100180.10
2023-03-17T01:38:58.605Z,100176.49
2023-03-17T01:40:01.538Z,100195.86
2023-03-17T01:41:03.799Z,100167.63
2023-03-17T01:42:06.471Z,100177.35
2023-03-17T01:43:12.209Z,100184.42
2023-03-17T01:44:17.022Z,100171.20
2023-03-17T01:45:56.945Z,100178.31
2023-03-17T01:46:59.123Z,100170.45
2023-03-17T01:48:01.317Z,100179.31
2023-03-17T01:49:10.151Z,100173.20
2023-03-17T01:50:12.506Z,100175.84
2023-03-17T01:51:33.220Z,100185.46
2023-03-17T01:52:37.949Z,100178.49
2023-03-17T01:53:40.799Z,100173.09
2023-03-17T01:54:52.329Z,100179.24
2023-03-17T01:55:56.079Z,100176.60
2023-03-17T01:57:01.897Z,100179.24
2023-03-17T01:58:04.215Z,100197.75
2023-03-17T01:59:07.804Z,100190.75
2023-03-17T02:00:13.970Z,100180.28
2023-03-17T02:01:16.576Z,100184.61
2023-03-17T02:02:31.439Z,100184.53
2023-03-17T02:03:34.247Z,100189.81
2023-03-17T02:04:37.440Z,100182.75
2023-03-17T02:05:39.773Z,100198.61
2023-03-17T02:06:55.030Z,100185.39
2023-03-17T02:07:46.440Z,100184.53
2023-03-17T02:08:49.584Z,100190.75
2023-03-17T02:09:54.518Z,100191.61
2023-03-17T02:10:56.638Z,100191.61
2023-03-17T02:12:00.506Z,100205.58
2023-03-17T02:13:04.348Z,100198.61
2023-03-17T02:14:06.611Z,100198.61
2023-03-17T02:15:10.611Z,100211.83
2023-03-17T02:16:16.689Z,100203.89
2023-03-17T02:18:38.117Z,100203.14
2023-03-17T02:19:41.254Z,100203.11
2023-03-17T02:20:50.417Z,100214.55
2023-03-17T02:21:54.868Z,100212.76
2023-03-17T02:22:57.010Z,100216.25
2023-03-17T02:24:01.784Z,100220.61
2023-03-17T02:25:05.647Z,100217.97
2023-03-17T02:26:10.067Z,100230.33
2023-03-17T02:27:25.360Z,100225.05
2023-03-17T02:28:30.866Z,100233.05
2023-03-17T02:29:37.476Z,100236.55
2023-03-17T02:30:39.747Z,100235.69
2023-03-17T02:31:44.136Z,100237.48
2023-03-17T02:32:46.496Z,100237.69
2023-03-17T02:33:49.073Z,100222.75
2023-03-17T02:34:51.170Z,100235.05
2023-03-17T02:35:53.581Z,100231.44
2023-03-17T02:36:56.121Z,100230.58
2023-03-17T02:37:58.409Z,100236.73
2023-03-17T02:39:02.806Z,100235.80
2023-03-17T02:40:07.056Z,100237.48
2023-03-17T02:41:09.294Z,100240.98
2023-03-17T02:42:12.623Z,100242.70
2023-03-17T02:43:15.509Z,100232.98
2023-03-17T02:44:18.214Z,100228.55
2023-03-17T02:45:20.347Z,100241.77
2023-03-17T02:46:22.988Z,100244.41
2023-03-17T02:47:26.263Z,100235.44
2023-03-17T02:48:28.890Z,100240.73
2023-03-17T02:49:32.430Z,100236.27
2023-03-17T02:50:35.003Z,100242.41
2023-03-17T02:51:37.802Z,100237.13
2023-03-17T02:52:40.394Z,100242.41
2023-03-17T02:53:42.881Z,100247.70
2023-03-17T02:54:45.082Z,100244.20
2023-03-17T02:55:47.020Z,100253.84
2023-03-17T02:56:49.702Z,100262.63
2023-03-17T02:57:51.798Z,100242.41
2023-03-17T02:58:54.055Z,100247.70
2023-03-17T02:59:56.462Z,100252.13
2023-03-17T03:00:58.852Z,100245.06
2023-03-17T03:02:01.208Z,100237.98
2023-03-17T03:03:03.397Z,100257.42
2023-03-17T03:04:06.261Z,100248.66
2023-03-17T03:05:09.188Z,100246.02
2023-03-17T03:06:12.061Z,100239.70
2023-03-17T03:07:15.361Z,100253.74
2023-03-17T03:08:17.406Z,100256.31
2023-03-17T03:09:20.214Z,100247.45
2023-03-17T03:10:22.553Z,100258.78
2023-03-17T03:11:25.229Z,100247.34
2023-03-17T03:12:27.415Z,100248.20
2023-03-17T03:13:29.457Z,100254.34
2023-03-17T03:14:31.530Z,100249.89
2023-03-17T03:15:33.627Z,100250.84
2023-03-17T03:16:35.965Z,100257.92
2023-03-17T03:17:38.117Z,100249.13
2023-03-17T03:18:40.331Z,100244.70
2023-03-17T03:19:42.504Z,100253.49
2023-03-17T03:20:45.582Z,100261.42
2023-03-17T03:21:49.031Z,100263.11
2023-03-17T03:22:51.158Z,100261.42
2023-03-17T03:23:53.571Z,100260.67
2023-03-17T03:24:55.750Z,100255.39
2023-03-17T03:25:57.896Z,100258.95
2023-03-17T03:27:00.185Z,100250.17
2023-03-17T03:28:02.563Z,100255.56
2023-03-17T03:29:04.861Z,100254.70
2023-03-17T03:30:08.800Z,100267.06
2023-03-17T03:31:11.094Z,100257.34
2023-03-17T03:32:13.315Z,100265.28
2023-03-17T03:33:16.401Z,100263.56
2023-03-17T03:34:19.315Z,100265.17
2023-03-17T03:35:22.114Z,100270.47
2023-03-17T03:36:24.347Z,100261.67
2023-03-17T03:37:26.726Z,100264.32
2023-03-17T03:38:30.921Z,100267.06
2023-03-17T03:39:32.958Z,100274.89
2023-03-17T03:40:36.685Z,100263.56
2023-03-17T03:41:38.797Z,100264.42
2023-03-17T03:42:40.966Z,100266.21
2023-03-17T03:43:43.242Z,100277.75
2023-03-17T03:44:45.293Z,100273.22
2023-03-17T03:45:47.751Z,100275.75
2023-03-17T03:46:50.986Z,100277.47
2023-03-17T03:47:53.518Z,100277.54
2023-03-17T03:48:56.207Z,100271.33
2023-03-17T03:49:58.389Z,100280.11
2023-03-17T03:51:03.200Z,100289.94
2023-03-17T03:52:05.746Z,100282.08
2023-03-17T03:53:07.888Z,100282.93
2023-03-17T03:54:10.066Z,100288.11
2023-03-17T03:55:12.304Z,100286.33
2023-03-17T03:56:14.495Z,100286.33
2023-03-17T03:57:17.154Z,100291.62
2023-03-17T03:58:19.365Z,100286.44
2023-03-17T03:59:21.710Z,100286.50
2023-03-17T04:00:23.932Z,100284.89
2023-03-17T04:01:27.184Z,100287.64
2023-03-17T04:02:29.154Z,100286.88
2023-03-17T04:03:31.301Z,100294.03
2023-03-17T04:04:33.900Z,100287.92
2023-03-17T04:05:36.261Z,100292.34
2023-03-17T04:06:38.817Z,100293.27
2023-03-17T04:07:43.352Z,100298.56
2023-03-17T04:08:45.529Z,100286.20
2023-03-17T04:09:48.136Z,100300.34
2023-03-17T04:10:50.302Z,100304.78
2023-03-17T04:11:52.363Z,100291.56
2023-03-17T04:12:54.801Z,100291.56
2023-03-17T04:13:56.875Z,100301.31
2023-03-17T04:14:58.925Z,100307.42
2023-03-17T04:16:01.766Z,100307.42
2023-03-17T04:17:03.940Z,100313.56
2023-03-17T04:18:06.035Z,100304.78
2023-03-17T04:19:08.109Z,100301.31
2023-03-17T04:20:12.107Z,100307.42
2023-03-17T04:21:14.227Z,100317.92
2023-03-17T04:22:16.294Z,100315.28
2023-03-17T04:23:18.987Z,100320.56
2023-03-17T04:24:21.488Z,100317.06
2023-03-17T04:25:23.553Z,100317.06
2023-03-17T04:26:25.758Z,100323.21
2023-03-17T04:27:27.892Z,100320.56
2023-03-17T04:28:30.486Z,100317.92
2023-03-17T04:29:32.356Z,100318.00
2023-03-17T04:30:34.542Z,100318.86
2023-03-17T04:31:36.704Z,100311.88
2023-03-17T04:32:40.100Z,100318.09
2023-03-17T04:33:42.245Z,100320.74
2023-03-17T04:34:44.545Z,100317.17
2023-03-17T04:35:48.687Z,100319.81
2023-03-17T04:36:50.863Z,100322.36
2023-03-17T04:37:52.910Z,100317.06
2023-03-17T04:38:55.080Z,100326.72
2023-03-17T04:39:57.708Z,100330.22
2023-03-17T04:41:00.334Z,100331.14
2023-03-17T04:42:03.641Z,100333.78
2023-03-17T04:43:06.440Z,100341.78
2023-03-17T04:44:09.590Z,100326.89
2023-03-17T04:45:13.173Z,100339.34
2023-03-17T04:46:15.597Z,100338.48
2023-03-17T04:47:17.757Z,100330.62
2023-03-17T04:48:20.369Z,100340.38
2023-03-17T04:49:22.463Z,100333.27
2023-03-17T04:50:24.751Z,100332.34
2023-03-17T04:51:28.648Z,100356.99
2023-03-17T04:52:31.432Z,100344.53
2023-03-17T04:53:33.533Z,100333.95
2023-03-17T04:54:35.817Z,100350.58
2023-03-17T04:55:37.794Z,100345.29
2023-03-17T04:56:39.992Z,100361.08
2023-03-17T04:57:42.050Z,100350.51
2023-03-17T04:58:44.241Z,100360.22
2023-03-17T04:59:46.830Z,100350.41
2023-03-17T05:00:48.913Z,100362.77
2023-03-17T05:01:51.279Z,100354.84
2023-03-17T05:02:53.820Z,100356.66
2023-03-17T05:03:57.107Z,100362.01
2023-03-17T05:04:59.231Z,100360.22
2023-03-17T05:06:03.201Z,100359.36
2023-03-17T05:07:05.354Z,100355.80
2023-03-17T05:08:07.504Z,100354.01
2023-03-17T05:09:09.686Z,100364.48
2023-03-17T05:10:13.049Z,100359.09
2023-03-17T05:11:15.234Z,100373.10
2023-03-17T05:12:17.282Z,100359.78
2023-03-17T05:13:20.151Z,100358.92
2023-03-17T05:14:22.964Z,100354.49
2023-03-17T05:15:25.277Z,100358.00
2023-03-17T05:16:28.446Z,100358.00
2023-03-17T05:17:30.608Z,100355.35
2023-03-17T05:18:33.295Z,100357.89
2023-03-17T05:19:35.376Z,100357.89
2023-03-17T05:20:37.455Z,100360.37
2023-03-17T05:21:39.670Z,100361.22
2023-03-17T05:22:41.889Z,100364.62
2023-03-17T05:23:44.137Z,100362.84
2023-03-17T05:24:46.195Z,100376.81
2023-03-17T05:25:49.479Z,100370.70
2023-03-17T05:26:51.616Z,100369.67
2023-03-17T05:27:53.740Z,100371.35
2023-03-17T05:28:55.784Z,100374.86
2023-03-17T05:29:57.989Z,100377.50
2023-03-17T05:31:00.258Z,100375.61
2023-03-17T05:32:03.069Z,100374.79
2023-03-17T05:33:05.193Z,100382.63
2023-03-17T05:34:07.654Z,100381.77
2023-03-17T05:35:09.907Z,100376.47
2023-03-17T05:36:12.837Z,100374.79
2023-03-17T05:37:15.152Z,100370.33
2023-03-17T05:38:17.617Z,100378.26
2023-03-17T05:39:19.694Z,100375.55
2023-03-17T05:40:23.822Z,100378.19
2023-03-17T05:41:26.312Z,100371.11
2023-03-17T05:42:28.783Z,100382.55
2023-03-17T05:43:31.270Z,100377.16
2023-03-17T05:44:33.900Z,100380.66
2023-03-17T05:45:36.737Z,100389.35
2023-03-17T05:46:39.581Z,100390.20
2023-03-17T05:47:43.065Z,100391.06
2023-03-17T05:48:45.412Z,100383.03
2023-03-17T05:49:47.774Z,100392.75
2023-03-17T05:50:50.881Z,100388.25
2023-03-17T05:51:53.578Z,100401.27
2023-03-17T05:52:55.645Z,100395.81
2023-03-17T05:53:57.847Z,100400.06
2023-03-17T05:55:00.002Z,100393.74
2023-03-17T05:56:03.214Z,100391.78
2023-03-17T05:57:05.647Z,100392.64
2023-03-17T05:58:08.038Z,100394.25
2023-03-17T05:59:10.608Z,100403.91
2023-03-17T06:00:15.150Z,100406.41
2023-03-17T06:01:17.302Z,100394.01
2023-03-17T06:02:20.505Z,100400.16
2023-03-17T06:03:24.863Z,100399.13
2023-03-17T06:04:27.005Z,100397.34
2023-03-17T06:05:30.423Z,100400.84
2023-03-17T06:06:32.936Z,100396.41
2023-03-17T06:07:50.955Z,100403.31
2023-03-17T06:08:39.620Z,100404.17
2023-03-17T06:09:41.811Z,100405.85
2023-03-17T06:10:44.461Z,100401.42
2023-03-17T06:11:47.012Z,100399.63
2023-03-17T06:12:49.193Z,100403.13
2023-03-17T06:13:51.463Z,100407.47
2023-03-17T06:14:53.651Z,100404.82
2023-03-17T06:15:55.603Z,100395.02
2023-03-17T06:16:57.732Z,100405.42
2023-03-17T06:17:59.777Z,100401.81
2023-03-17T06:19:01.980Z,100403.53
2023-03-17T06:20:05.507Z,100407.80
2023-03-17T06:21:07.736Z,100409.48
2023-03-17T06:22:10.022Z,100409.41
2023-03-17T06:23:12.287Z,100412.80
2023-03-17T06:24:14.422Z,100418.95
2023-03-17T06:26:48.097Z,100408.41
2023-03-17T06:27:50.517Z,100420.67
2023-03-17T06:28:52.877Z,100414.34
2023-03-17T06:29:55.506Z,100414.34
2023-03-17T06:30:57.709Z,100417.84
2023-03-17T06:32:17.073Z,100424.08
2023-03-17T06:33:04.284Z,100417.84
2023-03-17T06:34:06.833Z,100419.70
2023-03-17T06:35:09.205Z,100418.85
2023-03-17T06:36:13.815Z,100420.74
2023-03-17T06:37:16.194Z,100424.36
2023-03-17T06:38:20.589Z,100413.77
2023-03-17T06:39:22.743Z,100415.45
2023-03-17T06:40:24.844Z,100422.46
2023-03-17T06:41:26.943Z,100419.81
2023-03-17T06:42:29.178Z,100432.09
2023-03-17T06:43:31.289Z,100424.94
2023-03-17T06:44:34.017Z,100425.79
2023-03-17T06:45:36.119Z,100430.05
2023-03-17T06:46:38.706Z,100430.88
2023-03-17T06:47:41.589Z,100429.94
2023-03-17T06:48:43.751Z,100431.55
2023-03-17T06:49:45.852Z,100439.50
2023-03-17T06:50:47.930Z,100434.13
2023-03-17T06:51:50.135Z,100436.78
2023-03-17T06:52:52.869Z,100434.02
2023-03-17T06:53:55.406Z,100428.73
2023-03-17T06:54:57.489Z,100430.34
2023-03-17T06:55:59.675Z,100429.48
2023-03-17T06:57:01.921Z,100433.84
2023-03-17T06:58:04.722Z,100433.84
2023-03-17T06:59:07.205Z,100436.50
2023-03-17T07:00:10.802Z,100440.93
2023-03-17T07:01:13.610Z,100435.64
2023-03-17T07:02:15.938Z,100438.39
2023-03-17T07:03:18.114Z,100448.02
2023-03-17T07:04:20.454Z,100441.79
2023-03-17T07:05:22.580Z,100431.09
2023-03-17T07:06:26.553Z,100444.26
2023-03-17T07:07:28.643Z,100434.52
2023-03-17T07:08:30.860Z,100438.00
2023-03-17T07:09:33.801Z,100443.30
2023-03-17T07:10:36.725Z,100444.16
2023-03-17T07:11:39.491Z,100440.65
2023-03-17T07:12:42.779Z,100446.91
2023-03-17T07:13:45.516Z,100448.59
2023-03-17T07:14:49.497Z,100443.41
2023-03-17T07:15:54.608Z,100450.41
2023-03-17T07:16:56.911Z,100446.91
2023-03-17T07:18:01.653Z,100445.95
2023-03-17T07:19:05.938Z,100457.39
2023-03-17T07:20:10.355Z,100447.77
2023-03-17T07:21:14.385Z,100443.41
2023-03-17T07:22:16.568Z,100448.70
2023-03-17T07:23:21.289Z,100441.69
2023-03-17T07:24:28.533Z,100447.84
2023-03-17T07:25:34.083Z,100444.33
2023-03-17T07:26:40.920Z,100452.20
2023-03-17T07:27:44.187Z,100450.48
2023-03-17T07:28:47.860Z,100446.98
2023-03-17T07:29:55.666Z,100458.36
2023-03-17T07:30:57.834Z,100455.70
2023-03-17T07:32:02.605Z,100451.16
2023-03-17T07:33:04.889Z,100452.95
2023-03-17T07:34:07.538Z,100454.67
2023-03-17T07:35:11.451Z,100451.16
2023-03-17T07:36:16.308Z,100459.11
2023-03-17T07:37:18.716Z,100465.16
2023-03-17T07:38:21.237Z,100457.32
2023-03-17T07:39:25.741Z,100458.18
2023-03-17T07:40:29.228Z,100466.88
2023-03-17T07:41:31.756Z,100461.58
2023-03-17T07:42:38.520Z,100466.70
2023-03-17T07:43:40.875Z,100465.73
2023-03-17T07:44:44.713Z,100462.16
2023-03-17T07:45:47.026Z,100463.02
2023-03-17T07:46:50.195Z,100469.99
2023-03-17T07:47:52.372Z,100463.77
2023-03-17T07:48:54.551Z,100463.77
2023-03-17T07:49:57.217Z,100465.48
2023-03-17T07:50:59.437Z,100469.74
2023-03-17T07:52:01.638Z,100474.08
2023-03-17T07:53:03.810Z,100474.08
2023-03-17T07:54:05.988Z,100476.73
2023-03-17T07:55:10.228Z,100472.28
2023-03-17T07:56:13.186Z,100474.94
2023-03-17T07:57:17.601Z,100471.61
2023-03-17T07:58:22.379Z,100477.77
2023-03-17T07:59:25.145Z,100472.57
2023-03-17T08:00:28.145Z,100469.81
2023-03-17T08:01:30.312Z,100480.34
2023-03-17T08:02:32.958Z,100475.80
2023-03-17T08:03:35.717Z,100481.09
2023-03-17T08:04:37.839Z,100475.69
2023-03-17T08:05:40.004Z,100482.81
2023-03-17T08:06:42.404Z,100480.05
2023-03-17T08:07:44.606Z,100489.72
2023-03-17T08:08:46.961Z,100479.02
2023-03-17T08:09:50.215Z,100477.33
2023-03-17T08:10:54.679Z,100484.31
2023-03-17T08:11:57.279Z,100485.17
2023-03-17T08:12:59.961Z,100485.17
2023-03-17T08:14:02.032Z,100488.68
2023-03-17T08:15:06.816Z,100491.22
2023-03-17T08:16:09.112Z,100487.71
2023-03-17T08:17:11.631Z,100484.13
2023-03-17T08:18:17.792Z,100486.89
2023-03-17T08:19:24.019Z,100490.29
2023-03-17T08:20:26.325Z,100489.43
2023-03-17T08:21:29.067Z,100482.34
2023-03-17T08:22:31.280Z,100488.39
2023-03-17T08:23:34.024Z,100486.60
2023-03-17T08:24:36.765Z,100490.97
2023-03-17T08:25:39.124Z,100486.49
2023-03-17T08:26:41.595Z,100494.37
2023-03-17T08:27:45.128Z,100494.37
2023-03-17T08:28:47.591Z,100485.56
2023-03-17T08:29:51.048Z,100480.38
2023-03-17T08:30:54.740Z,100494.45
2023-03-17T08:31:57.792Z,100495.41
2023-03-17T08:33:02.014Z,100495.41
2023-03-17T08:34:07.871Z,100492.66
2023-03-17T08:35:15.633Z,100493.51
2023-03-17T08:36:19.689Z,100491.72
2023-03-17T08:37:21.827Z,100496.05
2023-03-17T08:38:23.904Z,100491.61
2023-03-17T08:39:27.330Z,100495.98
2023-03-17T08:40:30.462Z,100495.98
2023-03-17T08:41:33.196Z,100488.03
2023-03-17T08:42:38.661Z,100495.98
2023-03-17T08:43:45.110Z,100493.33
2023-03-17T08:44:49.732Z,100495.13
2023-03-17T08:45:55.791Z,100502.21
2023-03-17T08:47:00.279Z,100495.98
2023-03-17T08:48:04.447Z,100501.17
2023-03-17T08:49:07.422Z,100500.99
2023-03-17T08:50:18.230Z,100495.69
2023-03-17T08:51:24.169Z,100489.46
2023-03-17T08:52:25.145Z,100495.62
2023-03-17T08:53:27.250Z,100499.95
2023-03-17T08:54:29.496Z,100492.86
2023-03-17T08:55:31.951Z,100511.34
2023-03-17T08:56:34.650Z,100497.98
2023-03-17T08:57:36.906Z,100504.14
2023-03-17T08:58:39.772Z,100506.68
2023-03-17T08:59:41.998Z,100495.22
2023-03-17T09:00:44.343Z,100498.73
2023-03-17T09:01:46.573Z,100492.50
2023-03-17T09:02:48.847Z,100497.69
2023-03-17T09:03:53.009Z,100493.17
2023-03-17T09:04:55.821Z,100501.95
2023-03-17T09:05:58.354Z,100501.13
2023-03-17T09:07:04.011Z,100502.91
2023-03-17T09:08:05.744Z,100497.61
2023-03-17T09:09:08.706Z,100501.13
2023-03-17T09:10:11.821Z,100501.02
2023-03-17T09:11:16.909Z,100496.47
2023-03-17T09:12:19.624Z,100505.28
2023-03-17T09:13:22.125Z,100500.83
2023-03-17T09:14:24.300Z,100511.44
2023-03-17T09:15:26.562Z,100501.58
2023-03-17T09:16:29.938Z,100507.74
2023-03-17T09:17:32.229Z,100506.81
2023-03-17T09:18:34.420Z,100512.00
2023-03-17T09:19:37.788Z,100509.28
2023-03-17T09:20:40.107Z,100507.45
2023-03-17T09:21:42.807Z,100508.31
2023-03-17T09:22:45.495Z,100508.42
2023-03-17T09:23:48.664Z,100519.02
2023-03-17T09:24:51.040Z,100511.82
2023-03-17T09:25:53.911Z,100515.33
2023-03-17T09:26:55.996Z,100514.36
2023-03-17T09:27:58.382Z,100516.08
2023-03-17T09:29:02.002Z,100518.73
2023-03-17T09:30:06.036Z,100517.02
2023-03-17T09:31:10.106Z,100514.36
2023-03-17T09:32:13.013Z,100515.22
2023-03-17T09:33:16.277Z,100523.17
2023-03-17T09:34:18.471Z,100515.33
2023-03-17T09:35:21.108Z,100515.22
2023-03-17T09:36:23.286Z,100519.66
2023-03-17T09:37:25.350Z,100517.12
2023-03-17T09:38:28.115Z,100517.98
2023-03-17T09:39:30.321Z,100529.44
2023-03-17T09:42:22.593Z,100528.67
2023-03-17T09:43:51.801Z,100523.36
2023-03-17T09:45:12.660Z,100537.47
2023-03-17T09:46:33.460Z,100534.82
2023-03-17T09:47:42.998Z,100532.09
2023-03-17T09:48:55.335Z,100527.72
2023-03-17T09:50:00.255Z,100526.80
2023-03-17T09:51:05.154Z,100536.54
2023-03-17T09:53:32.021Z,100534.16
2023-03-17T09:54:36.081Z,100531.49
2023-03-17T09:55:38.503Z,100534.14
2023-03-17T09:56:43.018Z,100538.44
2023-03-17T09:57:45.543Z,100535.79
2023-03-17T09:59:11.640Z,100541.84
2023-03-17T10:00:19.031Z,100543.52
2023-03-17T10:01:22.399Z,100545.99
2023-03-17T10:02:30.839Z,100537.22
2023-03-17T10:03:33.426Z,100547.70
2023-03-17T10:04:36.250Z,100537.11
2023-03-17T10:05:38.459Z,100540.62
2023-03-17T10:06:44.615Z,100544.20
2023-03-17T10:08:10.851Z,100533.59
2023-03-17T10:09:16.576Z,100535.31
2023-03-17T10:10:29.350Z,100534.45
2023-03-17T10:11:35.571Z,100545.92
2023-03-17T10:12:50.160Z,100538.83
2023-03-17T10:14:20.508Z,100541.48
2023-03-17T10:17:02.134Z,100546.98
2023-03-17T10:18:13.306Z,100537.22
2023-03-17T10:19:34.623Z,100547.81
2023-03-17T10:21:59.242Z,100537.20
2023-03-17T10:23:06.201Z,100533.59
2023-03-17T10:24:10.124Z,100537.11
2023-03-17T10:25:21.178Z,100535.39
2023-03-17T10:26:33.064Z,100546.78
2023-03-17T10:27:36.920Z,100534.45
2023-03-17T10:28:39.611Z,100542.30
2023-03-17T10:29:41.666Z,100544.88
2023-03-17T10:30:43.926Z,100541.37
2023-03-17T10:31:46.369Z,100551.90
2023-03-17T10:32:49.529Z,100548.28
2023-03-17T10:33:52.177Z,100546.48
2023-03-17T10:34:55.340Z,100546.38
2023-03-17T10:36:01.288Z,100544.69
2023-03-17T10:37:06.255Z,100547.23
2023-03-17T10:38:17.206Z,100545.44
2023-03-17T10:39:22.426Z,100547.16
2023-03-17T10:40:27.953Z,100545.27
2023-03-17T10:42:47.509Z,100542.05
2023-03-17T10:43:50.727Z,100542.90
2023-03-17T10:45:02.343Z,100545.44
2023-03-17T10:46:09.548Z,100560.42
2023-03-17T10:47:24.442Z,100556.80
2023-03-17T10:48:28.175Z,100552.17
2023-03-17T10:49:35.848Z,100552.06
2023-03-17T10:50:39.875Z,100551.12
2023-03-17T10:51:45.682Z,100554.53
2023-03-17T10:53:09.503Z,100552.73
2023-03-17T10:55:43.507Z,100554.54
2023-03-17T10:56:48.050Z,100556.36
2023-03-17T10:59:08.129Z,100555.70
2023-03-17T11:00:16.303Z,100557.37
2023-03-17T11:01:31.159Z,100558.15
2023-03-17T11:02:40.183Z,100553.70
2023-03-17T11:03:42.517Z,100559.84
2023-03-17T11:04:46.402Z,100562.48
2023-03-17T11:07:35.538Z,100559.95
2023-03-17T11:08:51.883Z,100561.55
2023-03-17T11:09:57.296Z,100561.37
2023-03-17T11:10:59.993Z,100562.98
2023-03-17T11:12:23.729Z,100564.70
2023-03-17T11:13:29.793Z,100561.94
2023-03-17T11:14:32.211Z,100561.83
2023-03-17T11:15:41.932Z,100563.47
2023-03-17T11:18:23.598Z,100561.64
2023-03-17T11:21:21.201Z,100558.31
2023-03-17T11:22:37.205Z,100573.30
2023-03-17T11:23:50.439Z,100570.64
2023-03-17T11:25:02.403Z,100567.98
2023-03-17T11:27:32.567Z,100568.93
2023-03-17T11:28:39.279Z,100571.61
2023-03-17T11:30:13.448Z,100568.09
2023-03-17T11:31:28.899Z,100567.98
2023-03-17T11:32:35.488Z,100566.12
2023-03-17T11:33:50.985Z,100570.56
2023-03-17T11:36:39.177Z,100567.91
2023-03-17T11:38:00.755Z,100572.36
2023-03-17T11:41:08.229Z,100573.97
2023-03-17T11:42:47.959Z,100575.58
2023-03-17T11:44:00.443Z,100560.52
2023-03-17T11:45:09.624Z,100569.23
2023-03-17T11:46:21.096Z,100580.70
2023-03-17T11:49:11.585Z,100570.35
2023-03-17T11:52:00.396Z,100573.30
2023-03-17T11:53:12.324Z,100576.05
2023-03-17T11:54:36.299Z,100575.20
2023-03-17T11:56:00.511Z,100577.84
2023-03-17T11:57:14.924Z,100581.36
2023-03-17T11:58:32.937Z,100578.70
2023-03-17T11:59:54.060Z,100585.80
2023-03-17T12:02:15.553Z,100586.11
2023-03-17T12:03:39.375Z,100585.31
2023-03-17T12:04:53.598Z,100585.23
2023-03-17T12:06:00.529Z,100590.44
2023-03-17T12:07:06.456Z,100594.88
2023-03-17T12:08:18.883Z,100592.23
2023-03-17T12:10:53.162Z,100592.35
2023-03-17T12:11:57.390Z,100595.84
2023-03-17T12:13:12.254Z,100598.50
2023-03-17T12:14:29.968Z,100597.64
2023-03-17T12:15:35.932Z,100595.92
2023-03-17T12:16:58.345Z,100606.53
2023-03-17T12:19:34.064Z,100604.27
2023-03-17T12:22:23.314Z,100607.13
2023-03-17T12:23:49.808Z,100601.88
2023-03-17T12:25:12.206Z,100609.84
2023-03-17T12:26:34.852Z,100604.53
2023-03-17T12:29:03.918Z,100609.11
2023-03-17T12:30:24.772Z,100609.94
2023-03-17T12:31:36.013Z,100606.53
2023-03-17T12:32:59.582Z,100606.43
2023-03-17T12:34:21.496Z,100600.27
2023-03-17T12:35:35.337Z,100609.08
2023-03-17T12:36:39.521Z,100610.02
2023-03-17T12:37:42.142Z,100614.49
2023-03-17T12:39:01.351Z,100620.62
2023-03-17T12:40:13.188Z,100616.17
2023-03-17T12:41:31.682Z,100620.55
2023-03-17T12:42:43.432Z,100613.34
2023-03-17T12:44:23.637Z,100611.38
2023-03-17T12:45:46.400Z,100624.53
2023-03-17T12:46:55.424Z,100627.86
2023-03-17T12:48:06.681Z,100626.81
2023-03-17T12:51:25.774Z,100624.08
2023-03-17T12:52:48.618Z,100631.08
2023-03-17T12:53:51.490Z,100634.41
2023-03-17T12:54:54.415Z,100624.55
2023-03-17T12:56:12.220Z,100634.30
2023-03-17T12:58:50.641Z,100635.26
2023-03-17T13:01:34.686Z,100633.47
2023-03-17T13:04:36.925Z,100636.04